sensor_id;sensor_type;location;lat;lon;timestamp;P1;durP1;ratioP1;P2;durP2;ratioP2
31906;SDS011;18455;50.858;13.662;2023-06-10T00:02:17;11.32;;;8.63;;
31906;SDS011;18455;50.858;13.662;2023-06-10T00:07:17;12.38;;;9.15;;
31906;SDS011;18455;50.858;13.662;2023-06-10T00:12:18;12.57;;;10.40;;
31906;SDS011;18455;50.858;13.662;2023-06-10T00:17:20;11.98;;;8.98;;
31906;SDS011;18455;50.858;13.662;2023-06-10T00:22:23;11.65;;;8.82;;
31906;SDS011;18455;50.858;13.662;2023-06-10T00:27:24;10.13;;;8.77;;
31906;SDS011;18455;50.858;13.662;2023-06-10T00:32:27;11.98;;;10.15;;
31906;SDS011;18455;50.858;13.662;2023-06-10T00:37:29;10.90;;;9.48;;
31906;SDS011;18455;50.858;13.662;2023-06-10T00:42:30;12.73;;;9.68;;
31906;SDS011;18455;50.858;13.662;2023-06-10T00:47:31;12.05;;;9.75;;
31906;SDS011;18455;50.858;13.662;2023-06-10T00:52:31;10.38;;;9.23;;
31906;SDS011;18455;50.858;13.662;2023-06-10T00:57:31;11.35;;;8.65;;
31906;SDS011;18455;50.858;13.662;2023-06-10T01:02:32;10.60;;;9.50;;
31906;SDS011;18455;50.858;13.662;2023-06-10T01:07:37;10.73;;;9.40;;
31906;SDS011;18455;50.858;13.662;2023-06-10T01:13:02;14.02;;;9.65;;
31906;SDS011;18455;50.858;13.662;2023-06-10T01:18:05;12.48;;;9.35;;
31906;SDS011;18455;50.858;13.662;2023-06-10T01:23:10;10.55;;;8.45;;
31906;SDS011;18455;50.858;13.662;2023-06-10T01:28:18;11.65;;;9.65;;
31906;SDS011;18455;50.858;13.662;2023-06-10T01:33:25;9.18;;;8.10;;
31906;SDS011;18455;50.858;13.662;2023-06-10T01:38:30;9.27;;;8.27;;
31906;SDS011;18455;50.858;13.662;2023-06-10T01:43:33;9.60;;;8.60;;
31906;SDS011;18455;50.858;13.662;2023-06-10T01:48:34;14.23;;;9.60;;
31906;SDS011;18455;50.858;13.662;2023-06-10T01:53:35;11.05;;;9.75;;
31906;SDS011;18455;50.858;13.662;2023-06-10T01:58:35;12.35;;;10.23;;
31906;SDS011;18455;50.858;13.662;2023-06-10T02:03:36;12.20;;;10.02;;
31906;SDS011;18455;50.858;13.662;2023-06-10T02:08:36;13.70;;;9.43;;
31906;SDS011;18455;50.858;13.662;2023-06-10T02:13:37;13.60;;;9.60;;
31906;SDS011;18455;50.858;13.662;2023-06-10T02:18:38;10.68;;;9.55;;
31906;SDS011;18455;50.858;13.662;2023-06-10T02:23:42;11.07;;;9.77;;
31906;SDS011;18455;50.858;13.662;2023-06-10T02:28:43;10.23;;;9.20;;
31906;SDS011;18455;50.858;13.662;2023-06-10T02:33:44;11.85;;;10.50;;
31906;SDS011;18455;50.858;13.662;2023-06-10T02:38:45;14.98;;;9.68;;
31906;SDS011;18455;50.858;13.662;2023-06-10T02:43:45;10.95;;;9.20;;
31906;SDS011;18455;50.858;13.662;2023-06-10T02:48:46;10.65;;;9.63;;
31906;SDS011;18455;50.858;13.662;2023-06-10T02:53:53;12.70;;;10.30;;
31906;SDS011;18455;50.858;13.662;2023-06-10T02:58:54;11.33;;;8.90;;
31906;SDS011;18455;50.858;13.662;2023-06-10T03:03:56;10.70;;;9.43;;
31906;SDS011;18455;50.858;13.662;2023-06-10T03:08:56;11.40;;;9.15;;
31906;SDS011;18455;50.858;13.662;2023-06-10T03:13:57;11.80;;;9.73;;
31906;SDS011;18455;50.858;13.662;2023-06-10T03:18:58;12.65;;;9.82;;
31906;SDS011;18455;50.858;13.662;2023-06-10T03:23:59;11.43;;;9.43;;
31906;SDS011;18455;50.858;13.662;2023-06-10T03:28:59;12.00;;;9.50;;
31906;SDS011;18455;50.858;13.662;2023-06-10T03:34:00;11.10;;;9.53;;
31906;SDS011;18455;50.858;13.662;2023-06-10T03:39:00;10.65;;;9.55;;
31906;SDS011;18455;50.858;13.662;2023-06-10T03:44:02;10.47;;;9.17;;
31906;SDS011;18455;50.858;13.662;2023-06-10T03:49:04;14.20;;;10.15;;
31906;SDS011;18455;50.858;13.662;2023-06-10T03:54:05;12.25;;;10.02;;
31906;SDS011;18455;50.858;13.662;2023-06-10T03:59:06;10.43;;;9.37;;
31906;SDS011;18455;50.858;13.662;2023-06-10T04:04:08;13.43;;;10.53;;
31906;SDS011;18455;50.858;13.662;2023-06-10T04:09:09;12.50;;;9.73;;
31906;SDS011;18455;50.858;13.662;2023-06-10T04:14:10;11.53;;;9.43;;
31906;SDS011;18455;50.858;13.662;2023-06-10T04:19:13;10.20;;;9.20;;
31906;SDS011;18455;50.858;13.662;2023-06-10T04:24:14;16.50;;;9.80;;
31906;SDS011;18455;50.858;13.662;2023-06-10T04:29:16;13.32;;;9.77;;
31906;SDS011;18455;50.858;13.662;2023-06-10T04:34:16;12.65;;;8.52;;
31906;SDS011;18455;50.858;13.662;2023-06-10T04:39:17;10.48;;;8.07;;
31906;SDS011;18455;50.858;13.662;2023-06-10T04:44:19;10.80;;;8.98;;
31906;SDS011;18455;50.858;13.662;2023-06-10T04:49:19;9.95;;;8.60;;
31906;SDS011;18455;50.858;13.662;2023-06-10T04:54:20;8.98;;;8.07;;
31906;SDS011;18455;50.858;13.662;2023-06-10T04:59:20;9.93;;;7.90;;
31906;SDS011;18455;50.858;13.662;2023-06-10T05:04:21;9.57;;;8.50;;
31906;SDS011;18455;50.858;13.662;2023-06-10T05:09:21;9.27;;;8.07;;
31906;SDS011;18455;50.858;13.662;2023-06-10T05:14:21;8.40;;;7.53;;
31906;SDS011;18455;50.858;13.662;2023-06-10T05:19:22;12.77;;;7.53;;
31906;SDS011;18455;50.858;13.662;2023-06-10T05:24:22;10.75;;;7.13;;
31906;SDS011;18455;50.858;13.662;2023-06-10T05:29:23;9.98;;;6.95;;
31906;SDS011;18455;50.858;13.662;2023-06-10T05:34:23;6.85;;;6.20;;
31906;SDS011;18455;50.858;13.662;2023-06-10T05:39:24;8.10;;;7.07;;
31906;SDS011;18455;50.858;13.662;2023-06-10T05:44:24;8.75;;;6.47;;
31906;SDS011;18455;50.858;13.662;2023-06-10T05:49:25;5.90;;;5.20;;
31906;SDS011;18455;50.858;13.662;2023-06-10T05:54:25;8.73;;;5.53;;
31906;SDS011;18455;50.858;13.662;2023-06-10T05:59:26;5.38;;;4.88;;
31906;SDS011;18455;50.858;13.662;2023-06-10T06:04:26;7.15;;;4.90;;
31906;SDS011;18455;50.858;13.662;2023-06-10T06:09:27;6.05;;;4.72;;
31906;SDS011;18455;50.858;13.662;2023-06-10T06:14:30;6.88;;;4.30;;
31906;SDS011;18455;50.858;13.662;2023-06-10T06:19:31;4.75;;;4.15;;
31906;SDS011;18455;50.858;13.662;2023-06-10T06:24:31;7.20;;;4.70;;
31906;SDS011;18455;50.858;13.662;2023-06-10T06:29:31;5.20;;;4.70;;
31906;SDS011;18455;50.858;13.662;2023-06-10T06:34:32;6.95;;;4.95;;
31906;SDS011;18455;50.858;13.662;2023-06-10T06:39:33;9.07;;;5.57;;
31906;SDS011;18455;50.858;13.662;2023-06-10T06:44:33;5.75;;;5.00;;
31906;SDS011;18455;50.858;13.662;2023-06-10T06:49:34;5.70;;;5.15;;
31906;SDS011;18455;50.858;13.662;2023-06-10T06:54:34;6.68;;;5.35;;
31906;SDS011;18455;50.858;13.662;2023-06-10T06:59:35;7.60;;;5.72;;
31906;SDS011;18455;50.858;13.662;2023-06-10T07:04:36;8.90;;;4.95;;
31906;SDS011;18455;50.858;13.662;2023-06-10T07:09:37;7.47;;;5.20;;
31906;SDS011;18455;50.858;13.662;2023-06-10T07:14:37;7.03;;;5.55;;
31906;SDS011;18455;50.858;13.662;2023-06-10T07:19:38;8.40;;;5.30;;
31906;SDS011;18455;50.858;13.662;2023-06-10T07:24:38;7.22;;;5.30;;
31906;SDS011;18455;50.858;13.662;2023-06-10T07:29:38;6.78;;;5.50;;
31906;SDS011;18455;50.858;13.662;2023-06-10T07:34:39;7.18;;;4.97;;
31906;SDS011;18455;50.858;13.662;2023-06-10T07:39:39;8.98;;;5.30;;
31906;SDS011;18455;50.858;13.662;2023-06-10T07:44:40;6.00;;;5.25;;
31906;SDS011;18455;50.858;13.662;2023-06-10T07:49:40;5.50;;;5.00;;
31906;SDS011;18455;50.858;13.662;2023-06-10T07:54:41;5.97;;;4.80;;
31906;SDS011;18455;50.858;13.662;2023-06-10T07:59:42;8.80;;;5.03;;
31906;SDS011;18455;50.858;13.662;2023-06-10T08:04:44;7.05;;;5.82;;
31906;SDS011;18455;50.858;13.662;2023-06-10T08:09:44;6.32;;;5.72;;
31906;SDS011;18455;50.858;13.662;2023-06-10T08:14:44;7.80;;;6.75;;
31906;SDS011;18455;50.858;13.662;2023-06-10T08:19:45;8.85;;;7.40;;
31906;SDS011;18455;50.858;13.662;2023-06-10T08:24:45;10.80;;;7.55;;
31906;SDS011;18455;50.858;13.662;2023-06-10T08:29:45;11.48;;;7.70;;
31906;SDS011;18455;50.858;13.662;2023-06-10T08:34:46;10.90;;;8.40;;
31906;SDS011;18455;50.858;13.662;2023-06-10T08:39:46;14.52;;;9.48;;
31906;SDS011;18455;50.858;13.662;2023-06-10T08:44:47;10.10;;;7.88;;
31906;SDS011;18455;50.858;13.662;2023-06-10T08:49:49;11.05;;;8.93;;
31906;SDS011;18455;50.858;13.662;2023-06-10T08:54:57;16.70;;;11.90;;
31906;SDS011;18455;50.858;13.662;2023-06-10T08:59:59;10.20;;;8.52;;
31906;SDS011;18455;50.858;13.662;2023-06-10T09:05:03;9.68;;;8.70;;
31906;SDS011;18455;50.858;13.662;2023-06-10T09:10:04;10.00;;;8.10;;
31906;SDS011;18455;50.858;13.662;2023-06-10T09:15:07;11.63;;;7.90;;
31906;SDS011;18455;50.858;13.662;2023-06-10T09:20:08;8.88;;;7.85;;
31906;SDS011;18455;50.858;13.662;2023-06-10T09:25:09;12.00;;;8.68;;
31906;SDS011;18455;50.858;13.662;2023-06-10T09:30:10;9.52;;;8.27;;
31906;SDS011;18455;50.858;13.662;2023-06-10T09:35:25;11.55;;;8.73;;
31906;SDS011;18455;50.858;13.662;2023-06-10T09:40:26;8.25;;;7.13;;
31906;SDS011;18455;50.858;13.662;2023-06-10T09:45:29;11.88;;;7.40;;
31906;SDS011;18455;50.858;13.662;2023-06-10T09:50:34;8.90;;;6.32;;
31906;SDS011;18455;50.858;13.662;2023-06-10T09:55:36;6.32;;;5.25;;
31906;SDS011;18455;50.858;13.662;2023-06-10T10:00:37;7.95;;;5.53;;
31906;SDS011;18455;50.858;13.662;2023-06-10T10:05:38;8.60;;;5.03;;
31906;SDS011;18455;50.858;13.662;2023-06-10T10:10:38;5.80;;;5.17;;
31906;SDS011;18455;50.858;13.662;2023-06-10T10:15:38;11.40;;;6.07;;
31906;SDS011;18455;50.858;13.662;2023-06-10T10:20:49;8.43;;;5.10;;
31906;SDS011;18455;50.858;13.662;2023-06-10T10:25:52;7.43;;;5.32;;
31906;SDS011;18455;50.858;13.662;2023-06-10T10:30:54;6.78;;;5.30;;
31906;SDS011;18455;50.858;13.662;2023-06-10T10:35:59;5.70;;;4.80;;
31906;SDS011;18455;50.858;13.662;2023-06-10T10:41:00;7.30;;;4.78;;
31906;SDS011;18455;50.858;13.662;2023-06-10T10:46:01;5.20;;;4.68;;
31906;SDS011;18455;50.858;13.662;2023-06-10T10:51:03;10.18;;;5.28;;
31906;SDS011;18455;50.858;13.662;2023-06-10T10:56:07;5.78;;;4.45;;
31906;SDS011;18455;50.858;13.662;2023-06-10T11:01:09;8.18;;;4.72;;
31906;SDS011;18455;50.858;13.662;2023-06-10T11:06:15;7.95;;;5.13;;
31906;SDS011;18455;50.858;13.662;2023-06-10T11:11:25;5.25;;;4.72;;
31906;SDS011;18455;50.858;13.662;2023-06-10T11:16:28;7.97;;;4.95;;
31906;SDS011;18455;50.858;13.662;2023-06-10T11:21:28;7.20;;;4.38;;
31906;SDS011;18455;50.858;13.662;2023-06-10T11:26:30;11.47;;;4.33;;
31906;SDS011;18455;50.858;13.662;2023-06-10T11:37:22;6.95;;;4.30;;
31906;SDS011;18455;50.858;13.662;2023-06-10T11:42:23;9.88;;;4.55;;
31906;SDS011;18455;50.858;13.662;2023-06-10T11:47:23;5.57;;;4.07;;
31906;SDS011;18455;50.858;13.662;2023-06-10T11:52:27;6.97;;;4.22;;
31906;SDS011;18455;50.858;13.662;2023-06-10T11:57:35;6.30;;;4.35;;
31906;SDS011;18455;50.858;13.662;2023-06-10T12:02:35;6.15;;;4.43;;
31906;SDS011;18455;50.858;13.662;2023-06-10T12:07:35;9.57;;;4.53;;
31906;SDS011;18455;50.858;13.662;2023-06-10T12:12:36;8.10;;;4.47;;
31906;SDS011;18455;50.858;13.662;2023-06-10T12:17:37;4.93;;;4.10;;
31906;SDS011;18455;50.858;13.662;2023-06-10T12:22:41;8.15;;;3.92;;
31906;SDS011;18455;50.858;13.662;2023-06-10T12:27:52;5.45;;;4.20;;
31906;SDS011;18455;50.858;13.662;2023-06-10T12:32:53;7.68;;;4.05;;
31906;SDS011;18455;50.858;13.662;2023-06-10T12:37:55;7.60;;;4.80;;
31906;SDS011;18455;50.858;13.662;2023-06-10T12:43:06;7.43;;;3.92;;
31906;SDS011;18455;50.858;13.662;2023-06-10T12:48:08;5.73;;;3.67;;
31906;SDS011;18455;50.858;13.662;2023-06-10T12:53:10;6.85;;;4.18;;
31906;SDS011;18455;50.858;13.662;2023-06-10T12:58:14;9.40;;;3.92;;
31906;SDS011;18455;50.858;13.662;2023-06-10T13:03:15;6.68;;;4.22;;
31906;SDS011;18455;50.858;13.662;2023-06-10T13:08:16;5.20;;;4.32;;
31906;SDS011;18455;50.858;13.662;2023-06-10T13:13:16;8.43;;;4.37;;
31906;SDS011;18455;50.858;13.662;2023-06-10T13:18:17;5.47;;;4.03;;
31906;SDS011;18455;50.858;13.662;2023-06-10T13:23:18;6.35;;;4.57;;
31906;SDS011;18455;50.858;13.662;2023-06-10T13:28:19;4.80;;;4.30;;
31906;SDS011;18455;50.858;13.662;2023-06-10T13:33:19;4.72;;;4.05;;
31906;SDS011;18455;50.858;13.662;2023-06-10T13:38:22;5.75;;;4.22;;
31906;SDS011;18455;50.858;13.662;2023-06-10T13:43:22;5.17;;;4.40;;
31906;SDS011;18455;50.858;13.662;2023-06-10T13:48:23;5.50;;;3.70;;
31906;SDS011;18455;50.858;13.662;2023-06-10T13:53:23;7.88;;;4.57;;
31906;SDS011;18455;50.858;13.662;2023-06-10T13:58:23;4.07;;;3.77;;
31906;SDS011;18455;50.858;13.662;2023-06-10T14:03:24;7.33;;;3.70;;
31906;SDS011;18455;50.858;13.662;2023-06-10T14:08:24;6.18;;;4.10;;
31906;SDS011;18455;50.858;13.662;2023-06-10T14:13:25;5.20;;;3.77;;
31906;SDS011;18455;50.858;13.662;2023-06-10T14:18:25;5.87;;;4.03;;
31906;SDS011;18455;50.858;13.662;2023-06-10T14:23:25;8.43;;;3.78;;
31906;SDS011;18455;50.858;13.662;2023-06-10T14:28:26;7.22;;;3.72;;
31906;SDS011;18455;50.858;13.662;2023-06-10T14:33:27;7.85;;;3.65;;
31906;SDS011;18455;50.858;13.662;2023-06-10T14:38:28;4.20;;;3.28;;
31906;SDS011;18455;50.858;13.662;2023-06-10T14:43:28;7.77;;;3.57;;
31906;SDS011;18455;50.858;13.662;2023-06-10T14:48:29;7.40;;;3.77;;
31906;SDS011;18455;50.858;13.662;2023-06-10T14:53:29;5.23;;;3.73;;
31906;SDS011;18455;50.858;13.662;2023-06-10T14:58:29;4.63;;;3.73;;
31906;SDS011;18455;50.858;13.662;2023-06-10T15:03:30;4.47;;;3.55;;
31906;SDS011;18455;50.858;13.662;2023-06-10T15:08:30;5.03;;;3.83;;
31906;SDS011;18455;50.858;13.662;2023-06-10T15:13:31;8.23;;;4.30;;
31906;SDS011;18455;50.858;13.662;2023-06-10T15:18:31;5.10;;;4.03;;
31906;SDS011;18455;50.858;13.662;2023-06-10T15:23:32;6.28;;;4.70;;
31906;SDS011;18455;50.858;13.662;2023-06-10T15:28:32;4.37;;;3.97;;
31906;SDS011;18455;50.858;13.662;2023-06-10T15:33:32;6.97;;;4.33;;
31906;SDS011;18455;50.858;13.662;2023-06-10T15:38:33;5.57;;;4.07;;
31906;SDS011;18455;50.858;13.662;2023-06-10T15:43:33;8.23;;;4.57;;
31906;SDS011;18455;50.858;13.662;2023-06-10T15:48:34;6.00;;;4.53;;
31906;SDS011;18455;50.858;13.662;2023-06-10T15:53:34;5.60;;;4.50;;
31906;SDS011;18455;50.858;13.662;2023-06-10T15:58:34;5.63;;;4.87;;
31906;SDS011;18455;50.858;13.662;2023-06-10T16:03:35;5.73;;;4.87;;
31906;SDS011;18455;50.858;13.662;2023-06-10T16:08:35;10.38;;;4.28;;
31906;SDS011;18455;50.858;13.662;2023-06-10T16:13:36;5.78;;;5.25;;
31906;SDS011;18455;50.858;13.662;2023-06-10T16:18:37;5.40;;;4.60;;
31906;SDS011;18455;50.858;13.662;2023-06-10T16:23:37;9.55;;;5.82;;
31906;SDS011;18455;50.858;13.662;2023-06-10T16:28:38;8.73;;;5.25;;
31906;SDS011;18455;50.858;13.662;2023-06-10T16:33:39;7.47;;;5.20;;
31906;SDS011;18455;50.858;13.662;2023-06-10T16:38:39;16.52;;;6.38;;
31906;SDS011;18455;50.858;13.662;2023-06-10T16:43:40;6.35;;;5.75;;
31906;SDS011;18455;50.858;13.662;2023-06-10T16:48:40;12.68;;;7.05;;
31906;SDS011;18455;50.858;13.662;2023-06-10T16:53:44;8.07;;;6.78;;
31906;SDS011;18455;50.858;13.662;2023-06-10T16:58:44;9.02;;;6.50;;
31906;SDS011;18455;50.858;13.662;2023-06-10T17:03:45;12.98;;;6.30;;
31906;SDS011;18455;50.858;13.662;2023-06-10T17:08:45;9.23;;;6.47;;
31906;SDS011;18455;50.858;13.662;2023-06-10T17:13:45;8.13;;;6.25;;
31906;SDS011;18455;50.858;13.662;2023-06-10T17:18:46;6.93;;;6.18;;
31906;SDS011;18455;50.858;13.662;2023-06-10T17:23:46;7.25;;;5.70;;
31906;SDS011;18455;50.858;13.662;2023-06-10T17:28:47;6.40;;;5.80;;
31906;SDS011;18455;50.858;13.662;2023-06-10T17:33:47;5.80;;;5.20;;
31906;SDS011;18455;50.858;13.662;2023-06-10T17:38:47;12.20;;;5.95;;
31906;SDS011;18455;50.858;13.662;2023-06-10T17:43:48;7.38;;;5.25;;
31906;SDS011;18455;50.858;13.662;2023-06-10T17:48:48;6.82;;;5.05;;
31906;SDS011;18455;50.858;13.662;2023-06-10T17:53:48;10.95;;;5.20;;
31906;SDS011;18455;50.858;13.662;2023-06-10T17:58:50;5.72;;;5.00;;
31906;SDS011;18455;50.858;13.662;2023-06-10T18:03:50;6.78;;;5.03;;
31906;SDS011;18455;50.858;13.662;2023-06-10T18:08:51;8.85;;;5.72;;
31906;SDS011;18455;50.858;13.662;2023-06-10T18:13:51;6.63;;;5.40;;
31906;SDS011;18455;50.858;13.662;2023-06-10T18:18:51;9.65;;;6.38;;
31906;SDS011;18455;50.858;13.662;2023-06-10T18:23:52;6.90;;;6.07;;
31906;SDS011;18455;50.858;13.662;2023-06-10T18:28:52;8.15;;;6.85;;
31906;SDS011;18455;50.858;13.662;2023-06-10T18:33:53;10.07;;;6.72;;
31906;SDS011;18455;50.858;13.662;2023-06-10T18:38:53;10.57;;;6.90;;
31906;SDS011;18455;50.858;13.662;2023-06-10T18:43:55;7.72;;;6.53;;
31906;SDS011;18455;50.858;13.662;2023-06-10T18:49:01;10.48;;;6.72;;
31906;SDS011;18455;50.858;13.662;2023-06-10T18:54:01;9.75;;;6.40;;
31906;SDS011;18455;50.858;13.662;2023-06-10T18:59:03;8.07;;;6.00;;
31906;SDS011;18455;50.858;13.662;2023-06-10T19:04:03;7.10;;;6.40;;
31906;SDS011;18455;50.858;13.662;2023-06-10T19:09:03;18.05;;;10.95;;
31906;SDS011;18455;50.858;13.662;2023-06-10T19:14:04;10.85;;;7.28;;
31906;SDS011;18455;50.858;13.662;2023-06-10T19:19:04;12.23;;;7.40;;
31906;SDS011;18455;50.858;13.662;2023-06-10T19:24:05;12.63;;;8.32;;
31906;SDS011;18455;50.858;13.662;2023-06-10T19:29:05;13.48;;;9.18;;
31906;SDS011;18455;50.858;13.662;2023-06-10T19:34:06;10.70;;;8.52;;
31906;SDS011;18455;50.858;13.662;2023-06-10T19:39:06;11.63;;;7.85;;
31906;SDS011;18455;50.858;13.662;2023-06-10T19:44:06;11.75;;;7.28;;
31906;SDS011;18455;50.858;13.662;2023-06-10T19:49:07;12.65;;;7.97;;
31906;SDS011;18455;50.858;13.662;2023-06-10T19:54:07;9.98;;;7.47;;
31906;SDS011;18455;50.858;13.662;2023-06-10T19:59:07;11.77;;;7.88;;
31906;SDS011;18455;50.858;13.662;2023-06-10T20:04:08;11.10;;;7.80;;
31906;SDS011;18455;50.858;13.662;2023-06-10T20:09:09;10.63;;;7.72;;
31906;SDS011;18455;50.858;13.662;2023-06-10T20:14:10;11.32;;;7.88;;
31906;SDS011;18455;50.858;13.662;2023-06-10T20:19:10;9.40;;;7.57;;
31906;SDS011;18455;50.858;13.662;2023-06-10T20:24:11;9.85;;;8.20;;
31906;SDS011;18455;50.858;13.662;2023-06-10T20:29:11;12.90;;;8.85;;
31906;SDS011;18455;50.858;13.662;2023-06-10T20:34:11;10.38;;;8.02;;
31906;SDS011;18455;50.858;13.662;2023-06-10T20:39:12;8.95;;;7.65;;
31906;SDS011;18455;50.858;13.662;2023-06-10T20:44:12;11.43;;;8.00;;
31906;SDS011;18455;50.858;13.662;2023-06-10T20:49:13;11.82;;;7.40;;
31906;SDS011;18455;50.858;13.662;2023-06-10T20:54:14;9.98;;;8.20;;
31906;SDS011;18455;50.858;13.662;2023-06-10T20:59:14;10.63;;;8.00;;
31906;SDS011;18455;50.858;13.662;2023-06-10T21:04:15;11.40;;;7.97;;
31906;SDS011;18455;50.858;13.662;2023-06-10T21:09:15;14.18;;;8.55;;
31906;SDS011;18455;50.858;13.662;2023-06-10T21:14:15;9.50;;;8.02;;
31906;SDS011;18455;50.858;13.662;2023-06-10T21:19:16;9.23;;;8.05;;
31906;SDS011;18455;50.858;13.662;2023-06-10T21:24:16;11.52;;;8.23;;
31906;SDS011;18455;50.858;13.662;2023-06-10T21:29:16;15.57;;;7.70;;
31906;SDS011;18455;50.858;13.662;2023-06-10T21:34:17;10.45;;;7.63;;
31906;SDS011;18455;50.858;13.662;2023-06-10T21:39:17;9.02;;;6.55;;
31906;SDS011;18455;50.858;13.662;2023-06-10T21:44:18;13.18;;;7.45;;
31906;SDS011;18455;50.858;13.662;2023-06-10T21:49:18;9.85;;;7.40;;
31906;SDS011;18455;50.858;13.662;2023-06-10T21:54:18;13.50;;;7.30;;
31906;SDS011;18455;50.858;13.662;2023-06-10T21:59:20;9.27;;;6.80;;
31906;SDS011;18455;50.858;13.662;2023-06-10T22:04:22;9.70;;;7.20;;
31906;SDS011;18455;50.858;13.662;2023-06-10T22:09:23;11.13;;;7.43;;
31906;SDS011;18455;50.858;13.662;2023-06-10T22:14:23;14.93;;;7.30;;
31906;SDS011;18455;50.858;13.662;2023-06-10T22:19:23;7.85;;;6.43;;
31906;SDS011;18455;50.858;13.662;2023-06-10T22:24:24;7.82;;;6.63;;
31906;SDS011;18455;50.858;13.662;2023-06-10T22:29:24;16.75;;;6.53;;
31906;SDS011;18455;50.858;13.662;2023-06-10T22:34:25;10.02;;;6.00;;
31906;SDS011;18455;50.858;13.662;2023-06-10T22:39:25;7.97;;;6.40;;
31906;SDS011;18455;50.858;13.662;2023-06-10T22:44:26;7.60;;;6.15;;
31906;SDS011;18455;50.858;13.662;2023-06-10T22:49:26;14.27;;;6.80;;
31906;SDS011;18455;50.858;13.662;2023-06-10T22:54:26;7.63;;;5.97;;
31906;SDS011;18455;50.858;13.662;2023-06-10T22:59:27;10.85;;;6.15;;
31906;SDS011;18455;50.858;13.662;2023-06-10T23:04:27;8.32;;;6.03;;
31906;SDS011;18455;50.858;13.662;2023-06-10T23:09:28;10.27;;;6.25;;
31906;SDS011;18455;50.858;13.662;2023-06-10T23:14:28;8.23;;;6.30;;
31906;SDS011;18455;50.858;13.662;2023-06-10T23:19:28;13.50;;;5.97;;
31906;SDS011;18455;50.858;13.662;2023-06-10T23:24:29;8.50;;;5.82;;
31906;SDS011;18455;50.858;13.662;2023-06-10T23:29:29;7.80;;;6.15;;
31906;SDS011;18455;50.858;13.662;2023-06-10T23:34:29;10.93;;;5.63;;
31906;SDS011;18455;50.858;13.662;2023-06-10T23:39:30;6.90;;;5.25;;
31906;SDS011;18455;50.858;13.662;2023-06-10T23:44:30;11.70;;;5.97;;
31906;SDS011;18455;50.858;13.662;2023-06-10T23:49:30;7.03;;;4.72;;
31906;SDS011;18455;50.858;13.662;2023-06-10T23:54:31;6.90;;;5.05;;
31906;SDS011;18455;50.858;13.662;2023-06-10T23:59:31;10.27;;;5.10;;
